createdAt,value
2019-04-10T00:05:56.290Z,4.41
2019-04-10T00:16:01.792Z,4.40
2019-04-10T00:26:07.700Z,4.07
2019-04-10T00:36:14.153Z,4.12
2019-04-10T00:46:19.511Z,3.88
2019-04-10T00:56:24.836Z,3.37
2019-04-10T01:06:30.471Z,3.37
2019-04-10T01:16:35.779Z,3.37
2019-04-10T01:26:40.957Z,3.23
2019-04-10T01:36:46.274Z,3.04
2019-04-10T01:46:51.481Z,2.98
2019-04-10T01:56:57.755Z,2.79
2019-04-10T02:07:03.216Z,2.68
2019-04-10T02:17:08.523Z,2.68
2019-04-10T02:27:14.041Z,2.54
2019-04-10T02:37:19.459Z,2.65
2019-04-10T02:47:26.450Z,2.76
2019-04-10T02:57:31.837Z,2.74
2019-04-10T03:07:37.439Z,2.82
2019-04-10T03:17:42.775Z,2.63
2019-04-10T03:27:47.833Z,2.97
2019-04-10T03:37:54.482Z,2.90
2019-04-10T03:48:00.055Z,3.11
2019-04-10T03:58:05.637Z,2.86
2019-04-10T04:08:10.965Z,2.83
2019-04-10T04:18:17.179Z,3.00
2019-04-10T04:28:23.451Z,2.96
2019-04-10T04:38:28.875Z,2.88
2019-04-10T04:48:34.298Z,3.12
2019-04-10T04:58:41.419Z,3.00
2019-04-10T05:08:46.666Z,3.18
2019-04-10T05:18:52.067Z,3.11
2019-04-10T05:28:57.409Z,3.59
2019-04-10T05:39:02.731Z,3.53
2019-04-10T05:49:09.173Z,3.74
2019-04-10T05:59:16.388Z,4.17
2019-04-10T06:09:22.662Z,4.27
2019-04-10T06:19:28.833Z,3.88
2019-04-10T06:29:35.126Z,4.14
2019-04-10T06:39:42.051Z,4.57
2019-04-10T06:49:47.867Z,4.84
2019-04-10T06:59:54.238Z,4.82
2019-04-10T07:10:00.269Z,5.73
2019-04-10T07:20:07.478Z,5.20
2019-04-10T07:30:13.968Z,5.90
2019-04-10T07:40:20.632Z,5.45
2019-04-10T07:50:35.618Z,5.87
2019-04-10T08:00:41.337Z,5.85
2019-04-10T08:10:47.248Z,6.45
2019-04-10T08:20:53.164Z,6.52
2019-04-10T08:30:58.919Z,6.57
2019-04-10T08:41:05.373Z,8.42
2019-04-10T08:51:10.834Z,8.13
2019-04-10T09:01:17.339Z,8.29
2019-04-10T09:11:26.450Z,7.85
2019-04-10T09:21:29.754Z,9.26
2019-04-10T09:31:35.027Z,10.60
2019-04-10T09:41:40.383Z,10.74
2019-04-10T09:51:45.910Z,11.21
2019-04-10T10:01:51.792Z,10.32
2019-04-10T10:11:58.930Z,11.30
2019-04-10T10:22:05.108Z,11.46
2019-04-10T10:32:11.529Z,11.94
2019-04-10T10:42:17.260Z,11.89
2019-04-10T10:52:22.374Z,10.93
2019-04-10T11:02:27.770Z,14.07
2019-04-10T11:12:34.136Z,12.61
2019-04-10T11:22:39.976Z,12.26
2019-04-10T11:32:46.299Z,11.99
2019-04-10T11:42:53.800Z,11.00
2019-04-10T11:52:59.733Z,11.94
2019-04-10T12:03:08.742Z,11.33
2019-04-10T12:13:15.240Z,11.01
2019-04-10T12:23:20.874Z,11.98
2019-04-10T12:33:27.632Z,12.31
2019-04-10T12:43:34.746Z,11.46
2019-04-10T12:53:40.130Z,11.10
2019-04-10T13:03:45.509Z,10.93
2019-04-10T13:13:51.303Z,10.22
2019-04-10T13:23:57.319Z,11.15
2019-04-10T13:34:02.824Z,10.42
2019-04-10T13:44:08.645Z,9.93
2019-04-10T13:54:16.032Z,9.40
2019-04-10T14:04:21.364Z,9.47
2019-04-10T14:14:26.827Z,9.19
2019-04-10T14:24:40.345Z,9.30
2019-04-10T14:34:39.294Z,9.15
2019-04-10T14:44:44.672Z,8.90
2019-04-10T14:54:50.325Z,9.18
2019-04-10T15:04:55.902Z,9.35
2019-04-10T15:15:01.765Z,9.07
2019-04-10T15:25:09.226Z,8.87
2019-04-10T15:35:15.912Z,8.89
2019-04-10T15:45:21.771Z,8.75
2019-04-10T15:55:27.888Z,8.80
2019-04-10T16:05:33.733Z,8.69
2019-04-10T16:15:41.065Z,8.77
2019-04-10T16:25:52.213Z,8.65
2019-04-10T16:35:59.044Z,8.55
2019-04-10T16:46:05.001Z,8.17
2019-04-10T16:56:11.505Z,8.19
2019-04-10T17:06:17.818Z,8.06
2019-04-10T17:16:23.981Z,7.81
2019-04-10T17:26:30.886Z,7.71
2019-04-10T17:36:36.901Z,7.63
2019-04-10T17:46:43.691Z,7.53
2019-04-10T17:56:50.665Z,7.38
2019-04-10T18:06:57.499Z,7.23
2019-04-10T18:17:04.408Z,7.17
2019-04-10T18:27:10.445Z,7.21
2019-04-10T18:37:20.685Z,7.12
2019-04-10T18:47:23.623Z,6.95
2019-04-10T18:57:31.299Z,6.90
2019-04-10T19:07:37.109Z,6.75
2019-04-10T19:17:43.327Z,6.53
2019-04-10T19:27:49.140Z,6.28
2019-04-10T19:37:56.743Z,6.32
2019-04-10T19:48:03.954Z,6.04
2019-04-10T19:58:10.801Z,5.94
2019-04-10T20:08:17.596Z,5.93
2019-04-10T20:18:24.503Z,5.81
2019-04-10T20:28:30.991Z,5.67
2019-04-10T20:38:36.858Z,5.58
2019-04-10T20:48:42.575Z,5.49
2019-04-10T20:58:48.210Z,5.37
2019-04-10T21:08:54.429Z,5.14
2019-04-10T21:19:00.343Z,5.04
2019-04-10T21:29:07.039Z,4.84
2019-04-10T21:39:13.877Z,4.80
2019-04-10T21:49:19.844Z,5.01
2019-04-10T21:59:25.370Z,4.68
2019-04-10T22:09:32.132Z,4.40
2019-04-10T22:19:38.401Z,4.51
2019-04-10T22:29:44.816Z,4.52
2019-04-10T22:39:50.536Z,4.30
2019-04-10T22:49:55.833Z,4.43
2019-04-10T23:00:01.119Z,4.39
2019-04-10T23:10:12.924Z,4.13
2019-04-10T23:20:19.197Z,4.18
2019-04-10T23:30:24.723Z,4.00
2019-04-10T23:40:30.329Z,4.09
2019-04-10T23:50:36.531Z,4.04
